createdAt,value
2018-03-04T00:00:21.341Z,74.79
2018-03-04T00:02:47.167Z,72.58
2018-03-04T00:05:12.980Z,73.90
2018-03-04T00:07:39.159Z,75.14
2018-03-04T00:10:05.958Z,74.99
2018-03-04T00:12:31.788Z,71.51
2018-03-04T00:14:57.605Z,74.11
2018-03-04T00:17:30.548Z,75.29
2018-03-04T00:19:56.342Z,73.51
2018-03-04T00:22:34.622Z,74.16
2018-03-04T00:25:00.469Z,72.47
2018-03-04T00:27:26.289Z,74.61
2018-03-04T00:29:52.527Z,73.21
2018-03-04T00:32:18.316Z,71.38
2018-03-04T00:34:44.158Z,74.85
2018-03-04T00:37:10.078Z,73.12
2018-03-04T00:39:35.884Z,71.69
2018-03-04T00:42:01.692Z,71.72
2018-03-04T00:44:28.342Z,80.51
2018-03-04T00:46:54.220Z,67.18
2018-03-04T00:49:21.827Z,67.36
2018-03-04T00:51:47.667Z,68.52
2018-03-04T00:54:13.472Z,68.75
2018-03-04T00:56:39.313Z,68.63
2018-03-04T00:59:05.160Z,68.94
2018-03-04T01:01:30.949Z,69.96
2018-03-04T01:03:56.780Z,68.96
2018-03-04T01:06:23.386Z,69.42
2018-03-04T01:08:49.204Z,69.27
2018-03-04T01:11:15.037Z,69.54
2018-03-04T01:13:40.849Z,69.43
2018-03-04T01:16:06.665Z,68.46
2018-03-04T01:18:32.484Z,68.46
2018-03-04T01:20:58.335Z,68.92
2018-03-04T01:23:24.202Z,69.85
2018-03-04T01:25:50.041Z,70.04
2018-03-04T01:28:15.882Z,69.91
2018-03-04T01:30:41.715Z,70.20
2018-03-04T01:33:07.530Z,69.53
2018-03-04T01:35:33.361Z,70.04
2018-03-04T01:37:59.185Z,70.67
2018-03-04T01:40:25.007Z,69.41
2018-03-04T01:42:50.874Z,69.95
2018-03-04T01:45:16.667Z,69.31
2018-03-04T01:47:42.479Z,68.90
2018-03-04T01:50:08.319Z,68.28
2018-03-04T01:52:34.792Z,70.19
2018-03-04T01:55:01.799Z,69.98
2018-03-04T01:57:28.360Z,69.24
2018-03-04T01:59:54.176Z,71.08
2018-03-04T02:02:20.022Z,69.39
2018-03-04T02:04:45.837Z,69.20
2018-03-04T02:07:11.698Z,70.03
2018-03-04T02:09:37.615Z,70.00
2018-03-04T02:12:04.388Z,69.50
2018-03-04T02:14:30.191Z,70.11
2018-03-04T02:16:57.237Z,70.04
2018-03-04T02:19:23.058Z,70.25
2018-03-04T02:21:48.859Z,71.17
2018-03-04T02:24:14.679Z,69.88
2018-03-04T02:26:40.488Z,69.61
2018-03-04T02:29:06.286Z,70.53
2018-03-04T02:31:32.130Z,69.47
2018-03-04T02:33:57.984Z,71.18
2018-03-04T02:36:24.724Z,71.12
2018-03-04T02:38:50.956Z,69.71
2018-03-04T02:41:16.788Z,73.06
2018-03-04T02:43:42.636Z,68.86
2018-03-04T02:46:08.587Z,72.46
2018-03-04T02:48:34.410Z,69.71
2018-03-04T02:51:00.268Z,70.10
2018-03-04T02:53:26.367Z,70.09
2018-03-04T02:55:52.173Z,68.30
2018-03-04T02:58:17.972Z,68.91
2018-03-04T03:00:43.799Z,70.57
2018-03-04T03:03:09.594Z,69.69
2018-03-04T03:05:35.393Z,69.86
2018-03-04T03:08:01.209Z,68.91
2018-03-04T03:10:27.011Z,69.49
2018-03-04T03:12:52.862Z,69.21
2018-03-04T03:15:18.680Z,70.90
2018-03-04T03:17:44.468Z,69.18
2018-03-04T03:20:10.277Z,68.29
2018-03-04T03:22:36.124Z,71.11
2018-03-04T03:25:01.907Z,70.42
2018-03-04T03:27:27.702Z,69.85
2018-03-04T03:29:53.499Z,68.71
2018-03-04T03:32:19.289Z,70.62
2018-03-04T03:34:45.081Z,69.54
2018-03-04T03:37:10.873Z,70.18
2018-03-04T03:39:37.011Z,70.83
2018-03-04T03:42:02.802Z,68.08
2018-03-04T03:44:28.650Z,70.33
2018-03-04T03:46:54.450Z,68.55
2018-03-04T03:49:20.268Z,69.54
2018-03-04T03:51:46.132Z,69.00
2018-03-04T03:54:11.898Z,68.29
2018-03-04T03:56:37.689Z,69.20
2018-03-04T03:59:03.484Z,68.35
2018-03-04T04:01:29.280Z,69.98
2018-03-04T04:03:55.097Z,69.37
2018-03-04T04:06:20.887Z,67.64
2018-03-04T04:08:46.656Z,67.76
2018-03-04T04:11:12.487Z,68.94
2018-03-04T04:13:38.291Z,69.25
2018-03-04T04:16:04.082Z,67.92
2018-03-04T04:18:29.878Z,67.63
2018-03-04T04:20:55.904Z,68.50
2018-03-04T04:23:21.848Z,67.53
2018-03-04T04:25:47.719Z,68.00
2018-03-04T04:28:13.500Z,67.84
2018-03-04T04:30:39.299Z,68.70
2018-03-04T04:33:05.086Z,67.67
2018-03-04T04:35:30.883Z,69.50
2018-03-04T04:37:56.679Z,68.06
2018-03-04T04:40:22.485Z,67.94
2018-03-04T04:42:48.282Z,67.11
2018-03-04T04:45:14.076Z,68.41
2018-03-04T04:47:39.874Z,67.70
2018-03-04T04:50:05.687Z,67.50
2018-03-04T04:52:31.479Z,68.14
2018-03-04T04:54:57.280Z,67.40
2018-03-04T04:57:23.090Z,67.86
2018-03-04T04:59:48.881Z,68.14
2018-03-04T05:02:14.714Z,67.79
2018-03-04T05:04:40.602Z,68.66
2018-03-04T05:07:06.723Z,67.43
2018-03-04T05:09:32.495Z,68.73
2018-03-04T05:11:58.306Z,67.24
2018-03-04T05:14:24.100Z,67.84
2018-03-04T05:16:49.900Z,68.47
2018-03-04T05:19:15.717Z,68.28
2018-03-04T05:21:41.528Z,68.37
2018-03-04T05:24:07.320Z,67.50
2018-03-04T05:26:33.139Z,67.22
2018-03-04T05:28:58.951Z,67.85
2018-03-04T05:31:24.732Z,68.18
2018-03-04T05:33:50.519Z,68.21
2018-03-04T05:36:16.325Z,67.58
2018-03-04T05:38:42.107Z,67.44
2018-03-04T05:41:07.898Z,68.75
2018-03-04T05:43:33.795Z,67.63
2018-03-04T05:45:59.590Z,68.35
2018-03-04T05:48:25.379Z,68.14
2018-03-04T05:50:51.276Z,68.73
2018-03-04T05:53:17.094Z,68.15
2018-03-04T05:55:42.886Z,68.86
2018-03-04T05:58:08.708Z,68.71
2018-03-04T06:00:34.485Z,70.18
2018-03-04T06:03:00.263Z,68.22
2018-03-04T06:05:26.093Z,68.46
2018-03-04T06:07:51.886Z,69.24
2018-03-04T06:10:17.683Z,69.24
2018-03-04T06:12:43.839Z,68.56
2018-03-04T06:15:09.292Z,69.99
2018-03-04T06:17:35.087Z,69.36
2018-03-04T06:20:01.008Z,69.63
2018-03-04T06:22:26.819Z,69.54
2018-03-04T06:24:52.608Z,69.62
2018-03-04T06:27:18.409Z,69.08
2018-03-04T06:29:44.216Z,69.17
2018-03-04T06:32:10.017Z,69.92
2018-03-04T06:34:35.821Z,69.62
2018-03-04T06:37:01.627Z,69.91
2018-03-04T06:39:27.541Z,70.13
2018-03-04T06:41:53.340Z,69.58
2018-03-04T06:44:19.126Z,69.44
2018-03-04T06:46:44.930Z,69.88
2018-03-04T06:49:10.733Z,69.86
2018-03-04T06:51:36.735Z,69.71
2018-03-04T06:54:02.547Z,69.69
2018-03-04T06:56:28.447Z,69.37
2018-03-04T06:58:54.243Z,70.92
2018-03-04T07:01:20.059Z,68.36
2018-03-04T07:03:45.878Z,68.88
2018-03-04T07:06:12.208Z,70.11
2018-03-04T07:08:37.994Z,69.30
2018-03-04T07:11:03.816Z,68.04
2018-03-04T07:13:29.611Z,68.70
2018-03-04T07:15:55.395Z,69.32
2018-03-04T07:18:21.167Z,69.81
2018-03-04T07:20:46.946Z,68.41
2018-03-04T07:23:12.730Z,68.96
2018-03-04T07:25:38.595Z,68.38
2018-03-04T07:28:04.388Z,68.11
2018-03-04T07:30:30.190Z,68.13
2018-03-04T07:32:55.991Z,68.12
2018-03-04T07:35:21.786Z,68.43
2018-03-04T07:37:47.579Z,67.44
2018-03-04T07:40:13.399Z,67.79
2018-03-04T07:42:39.194Z,68.31
2018-03-04T07:45:04.981Z,67.86
2018-03-04T07:47:30.822Z,68.35
2018-03-04T07:49:56.615Z,67.33
2018-03-04T07:52:22.741Z,67.36
2018-03-04T07:54:48.526Z,67.57
2018-03-04T07:57:14.322Z,67.54
2018-03-04T07:59:40.116Z,67.47
2018-03-04T08:02:06.726Z,67.29
2018-03-04T08:04:32.535Z,67.31
2018-03-04T08:06:58.347Z,66.90
2018-03-04T08:09:24.123Z,67.03
2018-03-04T08:11:49.910Z,66.87
2018-03-04T08:14:15.719Z,66.84
2018-03-04T08:16:41.511Z,66.45
2018-03-04T08:19:07.306Z,66.61
2018-03-04T08:21:33.116Z,66.05
2018-03-04T08:23:58.916Z,66.31
2018-03-04T08:26:36.928Z,66.00
2018-03-04T08:29:02.742Z,65.34
2018-03-04T08:31:28.546Z,65.44
2018-03-04T08:33:54.363Z,65.36
2018-03-04T08:36:20.169Z,65.94
2018-03-04T08:38:53.007Z,66.59
2018-03-04T08:41:18.845Z,66.48
2018-03-04T08:43:44.815Z,66.11
2018-03-04T08:46:10.629Z,66.58
2018-03-04T08:48:36.466Z,66.44
2018-03-04T08:51:02.290Z,66.09
2018-03-04T08:53:28.115Z,65.56
2018-03-04T08:55:54.450Z,65.53
2018-03-04T08:58:20.287Z,64.89
2018-03-04T09:00:46.099Z,65.15
2018-03-04T09:03:11.903Z,64.65
2018-03-04T09:05:37.842Z,65.24
2018-03-04T09:08:03.696Z,64.65
2018-03-04T09:10:29.927Z,64.27
2018-03-04T09:12:55.735Z,64.78
2018-03-04T09:15:21.666Z,64.10
2018-03-04T09:17:47.463Z,63.93
2018-03-04T09:20:13.611Z,64.19
2018-03-04T09:22:39.501Z,63.83
2018-03-04T09:25:05.303Z,64.09
2018-03-04T09:27:31.101Z,64.04
2018-03-04T09:29:56.936Z,68.87
2018-03-04T09:34:55.597Z,64.70
2018-03-04T09:37:21.407Z,64.02
2018-03-04T09:39:47.212Z,63.58
2018-03-04T09:42:13.171Z,64.80
2018-03-04T09:44:39.052Z,64.19
2018-03-04T09:47:06.222Z,64.03
2018-03-04T09:49:32.027Z,64.13
2018-03-04T09:51:57.876Z,63.35
2018-03-04T09:54:23.687Z,63.44
2018-03-04T09:56:49.811Z,63.57
2018-03-04T09:59:15.694Z,62.86
2018-03-04T10:01:42.309Z,62.91
2018-03-04T10:04:08.151Z,63.42
2018-03-04T10:06:41.088Z,62.20
2018-03-04T10:09:07.485Z,63.58
2018-03-04T10:11:33.404Z,63.70
2018-03-04T10:13:59.249Z,62.73
2018-03-04T10:16:25.292Z,62.81
2018-03-04T10:18:51.133Z,62.27
2018-03-04T10:21:17.163Z,62.47
2018-03-04T10:23:43.006Z,62.15
2018-03-04T10:26:08.844Z,62.38
2018-03-04T10:28:34.654Z,62.30
2018-03-04T10:31:02.557Z,61.41
2018-03-04T10:33:28.400Z,61.36
2018-03-04T10:35:54.178Z,60.79
2018-03-04T10:38:20.055Z,60.87
2018-03-04T10:40:45.873Z,59.64
2018-03-04T10:43:11.659Z,60.28
2018-03-04T10:45:38.819Z,59.70
2018-03-04T10:48:04.616Z,57.26
2018-03-04T10:50:30.439Z,57.68
2018-03-04T10:52:56.255Z,57.38
2018-03-04T10:55:22.209Z,55.72
2018-03-04T10:57:48.371Z,56.03
2018-03-04T11:00:14.210Z,56.58
2018-03-04T11:02:40.807Z,56.40
2018-03-04T11:05:06.641Z,61.12
2018-03-04T11:07:33.555Z,56.26
2018-03-04T11:09:59.494Z,56.98
2018-03-04T11:12:25.278Z,55.92
2018-03-04T11:14:51.101Z,56.92
2018-03-04T11:17:16.892Z,56.56
2018-03-04T11:19:42.728Z,55.56
2018-03-04T11:22:08.853Z,55.37
2018-03-04T11:24:34.679Z,55.75
2018-03-04T11:27:00.468Z,55.41
2018-03-04T11:29:26.325Z,57.83
2018-03-04T11:31:52.163Z,54.73
2018-03-04T11:34:18.092Z,56.46
2018-03-04T11:36:44.203Z,56.70
2018-03-04T11:39:10.350Z,56.84
2018-03-04T11:41:36.188Z,56.48
2018-03-04T11:44:02.008Z,55.84
2018-03-04T11:46:27.865Z,57.76
2018-03-04T11:48:53.776Z,54.13
2018-03-04T11:51:19.604Z,54.58
2018-03-04T11:53:45.649Z,57.21
2018-03-04T11:56:11.436Z,55.80
2018-03-04T11:58:37.460Z,53.61
2018-03-04T12:01:03.292Z,53.33
2018-03-04T12:03:29.079Z,54.39
2018-03-04T12:05:55.057Z,55.36
2018-03-04T12:08:20.859Z,55.04
2018-03-04T12:10:47.065Z,55.97
2018-03-04T12:13:12.956Z,56.45
2018-03-04T12:15:38.903Z,56.23
2018-03-04T12:18:04.695Z,56.29
2018-03-04T12:20:30.669Z,56.09
2018-03-04T12:22:56.475Z,55.80
2018-03-04T12:25:22.317Z,56.15
2018-03-04T12:27:48.110Z,55.16
2018-03-04T12:30:13.901Z,55.74
2018-03-04T12:32:39.733Z,55.98
2018-03-04T12:35:05.545Z,55.86
2018-03-04T12:37:31.350Z,56.13
2018-03-04T12:39:57.144Z,54.83
2018-03-04T12:42:22.954Z,55.14
2018-03-04T12:44:48.740Z,55.11
2018-03-04T12:47:14.524Z,55.18
2018-03-04T12:49:40.334Z,63.14
2018-03-04T12:52:06.127Z,51.27
2018-03-04T12:54:31.919Z,51.77
2018-03-04T12:56:57.720Z,52.58
2018-03-04T12:59:23.499Z,61.05
2018-03-04T13:01:49.278Z,48.36
2018-03-04T13:04:15.094Z,46.33
2018-03-04T13:06:40.888Z,49.38
2018-03-04T13:09:06.668Z,50.43
2018-03-04T13:11:32.480Z,51.04
2018-03-04T13:13:58.273Z,51.15
2018-03-04T13:16:24.186Z,51.50
2018-03-04T13:18:50.000Z,50.87
2018-03-04T13:21:15.816Z,49.73
2018-03-04T13:23:41.813Z,48.68
2018-03-04T13:26:07.647Z,47.72
2018-03-04T13:28:33.434Z,46.48
2018-03-04T13:30:59.251Z,47.02
2018-03-04T13:33:25.045Z,48.53
2018-03-04T13:35:50.834Z,49.28
2018-03-04T13:38:16.648Z,47.39
2018-03-04T13:40:42.437Z,47.42
2018-03-04T13:43:08.214Z,46.39
2018-03-04T13:45:34.016Z,46.43
2018-03-04T13:47:59.824Z,45.66
2018-03-04T13:50:25.601Z,46.46
2018-03-04T13:52:51.389Z,46.24
2018-03-04T13:55:24.415Z,46.42
2018-03-04T13:57:50.192Z,45.50
2018-03-04T14:00:15.988Z,43.76
2018-03-04T14:02:41.784Z,43.71
2018-03-04T14:05:07.588Z,44.66
2018-03-04T14:07:33.404Z,47.40
2018-03-04T14:09:59.188Z,48.59
2018-03-04T14:12:24.987Z,48.97
2018-03-04T14:14:50.795Z,49.48
2018-03-04T14:17:16.587Z,50.56
2018-03-04T14:19:42.378Z,50.91
2018-03-04T14:22:08.200Z,51.19
2018-03-04T14:24:33.995Z,51.64
2018-03-04T14:26:59.778Z,52.34
2018-03-04T14:29:25.717Z,52.78
2018-03-04T14:31:51.491Z,52.32
2018-03-04T14:34:17.267Z,52.25
2018-03-04T14:36:43.059Z,51.98
2018-03-04T14:39:08.852Z,52.91
2018-03-04T14:41:34.661Z,53.27
2018-03-04T14:44:00.462Z,66.81
2018-03-04T14:46:26.252Z,67.24
2018-03-04T14:48:52.057Z,47.68
2018-03-04T14:51:17.837Z,51.09
2018-03-04T14:53:43.612Z,52.25
2018-03-04T14:56:09.414Z,53.21
2018-03-04T14:58:35.207Z,53.98
2018-03-04T15:01:01.045Z,52.95
2018-03-04T15:03:26.822Z,53.73
2018-03-04T15:05:52.611Z,54.63
2018-03-04T15:08:18.552Z,59.09
2018-03-04T15:10:44.344Z,52.38
2018-03-04T15:13:11.987Z,54.13
2018-03-04T15:15:38.631Z,54.19
2018-03-04T15:18:04.463Z,54.66
2018-03-04T15:20:30.613Z,55.70
2018-03-04T15:22:56.480Z,55.25
2018-03-04T15:25:22.260Z,55.08
2018-03-04T15:27:48.376Z,55.22
2018-03-04T15:30:14.241Z,55.08
2018-03-04T15:32:40.388Z,55.02
2018-03-04T15:35:06.515Z,54.52
2018-03-04T15:37:32.443Z,55.09
2018-03-04T15:39:58.311Z,55.82
2018-03-04T15:42:24.719Z,55.67
2018-03-04T15:44:50.524Z,56.07
2018-03-04T15:47:16.839Z,56.36
2018-03-04T15:49:42.683Z,56.13
2018-03-04T15:52:09.008Z,55.87
2018-03-04T15:54:34.870Z,56.50
2018-03-04T15:57:01.257Z,57.02
2018-03-04T15:59:27.093Z,56.95
2018-03-04T16:01:53.102Z,56.72
2018-03-04T16:04:18.962Z,56.65
2018-03-04T16:06:45.203Z,56.97
2018-03-04T16:09:11.113Z,57.18
2018-03-04T16:11:36.920Z,57.31
2018-03-04T16:14:02.844Z,57.32
2018-03-04T16:16:28.645Z,57.90
2018-03-04T16:18:54.768Z,57.43
2018-03-04T16:21:20.546Z,58.51
2018-03-04T16:23:46.432Z,57.88
2018-03-04T16:26:12.235Z,57.62
2018-03-04T16:28:38.023Z,57.53
2018-03-04T16:31:03.879Z,58.01
2018-03-04T16:33:29.666Z,58.15
2018-03-04T16:35:55.696Z,58.02
2018-03-04T16:38:21.809Z,59.25
2018-03-04T16:40:47.739Z,59.04
2018-03-04T16:43:13.536Z,58.89
2018-03-04T16:45:39.589Z,58.94
2018-03-04T16:48:05.436Z,59.13
2018-03-04T16:50:31.247Z,59.10
2018-03-04T16:52:57.029Z,58.82
2018-03-04T16:55:22.817Z,59.02
2018-03-04T16:57:48.617Z,58.94
2018-03-04T17:00:14.448Z,62.20
2018-03-04T17:02:40.211Z,60.21
2018-03-04T17:05:06.026Z,61.69
2018-03-04T17:07:33.867Z,59.32
2018-03-04T17:09:59.743Z,63.74
2018-03-04T17:12:26.033Z,62.65
2018-03-04T17:14:51.822Z,59.11
2018-03-04T17:17:18.242Z,60.21
2018-03-04T17:19:44.083Z,59.36
2018-03-04T17:22:10.613Z,60.54
2018-03-04T17:24:36.449Z,58.66
2018-03-04T17:27:02.583Z,58.54
2018-03-04T17:29:28.519Z,59.68
2018-03-04T17:31:54.377Z,58.85
2018-03-04T17:34:20.211Z,58.43
2018-03-04T17:36:46.366Z,58.47
2018-03-04T17:39:12.451Z,58.61
2018-03-04T17:41:38.248Z,60.93
2018-03-04T17:44:04.272Z,57.93
2018-03-04T17:46:30.058Z,57.65
2018-03-04T17:48:55.850Z,58.31
2018-03-04T17:51:22.403Z,57.84
2018-03-04T17:53:48.192Z,58.91
2018-03-04T17:56:14.619Z,59.34
2018-03-04T17:58:40.403Z,59.39
2018-03-04T18:01:06.872Z,59.72
2018-03-04T18:03:32.711Z,59.88
2018-03-04T18:05:58.900Z,59.63
2018-03-04T18:08:24.705Z,59.72
2018-03-04T18:10:51.457Z,59.64
2018-03-04T18:13:17.239Z,59.36
2018-03-04T18:15:43.727Z,83.21
2018-03-04T18:18:09.532Z,57.03
2018-03-04T18:20:35.502Z,57.96
2018-03-04T18:23:01.310Z,58.64
2018-03-04T18:25:27.627Z,58.66
2018-03-04T18:27:53.409Z,58.92
2018-03-04T18:30:19.244Z,59.64
2018-03-04T18:32:45.063Z,59.50
2018-03-04T18:35:10.955Z,59.70
2018-03-04T18:37:36.755Z,56.82
2018-03-04T18:40:02.591Z,57.98
2018-03-04T18:42:28.395Z,58.71
2018-03-04T18:44:54.180Z,59.55
2018-03-04T18:47:19.980Z,59.79
2018-03-04T18:49:45.762Z,59.72
2018-03-04T18:52:11.550Z,59.77
2018-03-04T18:54:37.362Z,60.25
2018-03-04T18:57:03.175Z,60.09
2018-03-04T18:59:28.957Z,59.87
2018-03-04T19:01:55.203Z,59.80
2018-03-04T19:04:20.997Z,59.70
2018-03-04T19:06:46.818Z,67.17
2018-03-04T19:09:12.649Z,60.34
2018-03-04T19:11:38.448Z,67.26
2018-03-04T19:14:04.240Z,65.19
2018-03-04T19:16:30.052Z,59.46
2018-03-04T19:18:55.851Z,64.91
2018-03-04T19:21:21.637Z,65.39
2018-03-04T19:23:47.451Z,66.63
2018-03-04T19:26:13.249Z,60.26
2018-03-04T19:28:39.053Z,65.59
2018-03-04T19:31:04.961Z,63.43
2018-03-04T19:33:30.749Z,62.41
2018-03-04T19:35:56.632Z,59.58
2018-03-04T19:38:22.511Z,60.08
2018-03-04T19:40:48.327Z,60.19
2018-03-04T19:43:14.099Z,64.72
2018-03-04T19:45:39.914Z,61.95
2018-03-04T19:48:05.725Z,57.94
2018-03-04T19:50:31.515Z,63.23
2018-03-04T19:52:57.409Z,57.23
2018-03-04T19:55:23.204Z,57.90
2018-03-04T19:57:49.020Z,58.63
2018-03-04T20:00:14.817Z,59.07
2018-03-04T20:02:40.608Z,59.46
2018-03-04T20:05:06.406Z,59.19
2018-03-04T20:07:32.235Z,59.30
2018-03-04T20:09:58.027Z,59.32
2018-03-04T20:12:23.827Z,59.65
2018-03-04T20:14:49.890Z,59.24
2018-03-04T20:17:15.740Z,59.23
2018-03-04T20:19:41.559Z,59.84
2018-03-04T20:22:07.388Z,59.51
2018-03-04T20:24:33.224Z,59.51
2018-03-04T20:26:59.486Z,59.27
2018-03-04T20:29:25.480Z,59.31
2018-03-04T20:31:51.385Z,59.44
2018-03-04T20:34:17.277Z,59.76
2018-03-04T20:36:43.263Z,59.22
2018-03-04T20:39:09.632Z,59.78
2018-03-04T20:41:35.446Z,59.52
2018-03-04T20:44:01.271Z,59.56
2018-03-04T20:46:27.112Z,59.83
2018-03-04T20:48:52.966Z,68.22
2018-03-04T20:51:18.776Z,58.60
2018-03-04T20:53:45.178Z,58.78
2018-03-04T20:56:11.022Z,58.75
2018-03-04T20:58:36.874Z,58.54
2018-03-04T21:01:02.806Z,58.96
2018-03-04T21:03:30.710Z,58.70
2018-03-04T21:05:56.495Z,58.95
2018-03-04T21:08:22.305Z,59.22
2018-03-04T21:10:48.161Z,58.93
2018-03-04T21:13:13.967Z,59.46
2018-03-04T21:15:39.763Z,59.12
2018-03-04T21:18:06.533Z,59.14
2018-03-04T21:20:33.361Z,58.91
2018-03-04T21:22:59.208Z,59.08
2018-03-04T21:25:25.136Z,59.06
2018-03-04T21:27:51.131Z,59.47
2018-03-04T21:30:17.463Z,58.61
2018-03-04T21:32:44.325Z,59.25
2018-03-04T21:35:11.200Z,59.21
2018-03-04T21:37:38.042Z,58.68
2018-03-04T21:40:04.156Z,58.92
2018-03-04T21:42:30.786Z,58.96
2018-03-04T21:44:56.646Z,62.97
2018-03-04T21:47:22.847Z,57.75
2018-03-04T21:49:48.715Z,57.70
2018-03-04T21:52:14.809Z,58.40
2018-03-04T21:54:40.646Z,58.94
2018-03-04T21:57:06.460Z,59.06
2018-03-04T21:59:32.444Z,58.96
2018-03-04T22:01:58.248Z,58.97
2018-03-04T22:04:24.046Z,58.82
2018-03-04T22:06:49.964Z,58.58
2018-03-04T22:09:15.750Z,58.78
2018-03-04T22:11:41.552Z,58.55
2018-03-04T22:14:07.344Z,58.90
2018-03-04T22:16:33.139Z,58.78
2018-03-04T22:18:58.944Z,58.49
2018-03-04T22:21:24.723Z,58.35
2018-03-04T22:23:50.499Z,58.28
2018-03-04T22:26:16.306Z,58.49
2018-03-04T22:28:42.078Z,58.66
2018-03-04T22:31:07.873Z,58.60
2018-03-04T22:33:34.009Z,58.22
2018-03-04T22:35:59.817Z,58.36
2018-03-04T22:38:25.955Z,58.43
2018-03-04T22:40:51.763Z,58.79
2018-03-04T22:43:17.556Z,59.07
2018-03-04T22:45:43.349Z,58.84
2018-03-04T22:48:09.407Z,58.92
2018-03-04T22:50:35.199Z,58.93
2018-03-04T22:53:00.996Z,58.94
2018-03-04T22:55:26.824Z,59.19
2018-03-04T22:57:52.620Z,69.14
2018-03-04T23:00:18.431Z,59.70
2018-03-04T23:02:44.242Z,64.00
2018-03-04T23:05:10.038Z,68.93
2018-03-04T23:07:35.814Z,58.25
2018-03-04T23:10:02.001Z,58.92
2018-03-04T23:12:27.817Z,60.46
2018-03-04T23:14:53.645Z,62.64
2018-03-04T23:17:19.439Z,61.83
2018-03-04T23:19:45.245Z,63.91
2018-03-04T23:22:11.030Z,66.72
2018-03-04T23:24:36.864Z,58.87
2018-03-04T23:27:02.666Z,58.62
2018-03-04T23:29:28.469Z,60.64
2018-03-04T23:31:54.274Z,66.08
2018-03-04T23:34:20.134Z,60.39
2018-03-04T23:36:45.931Z,59.28
2018-03-04T23:39:11.750Z,58.58
2018-03-04T23:41:37.543Z,58.73
2018-03-04T23:44:03.338Z,59.11
2018-03-04T23:46:29.151Z,59.12
2018-03-04T23:48:54.956Z,59.50
2018-03-04T23:51:20.761Z,59.60
2018-03-04T23:53:46.574Z,59.40
2018-03-04T23:56:12.367Z,59.02
2018-03-04T23:58:38.168Z,59.25
